METAR and TAF’s


Available data for KLBB from the past 2 hours
LUBBOCK, TX
Metar
KLBB 181253Z 14005KT 10SM FEW150 19/16 A3004 RMK AO2 SLP121 T01890156

12:53 UTC

Wind: 140° 5kt

Visibility: 10 SM

Sky: FEW 15000 ft

Temp: 19 deg C / 66.2 deg F

Dewpoint: 16 deg C / 60.8 deg F

Pressure: 30.04 inHg

TAF
KLBB 181120Z 1812/1912 19010KT P6SM SCT080
Available data for KCVN from the past 2 hours
CLOVIS MUNI, NM
Metar
KCVN 181256Z AUTO 00000KT 10SM CLR 14/12 A3009 RMK AO2 SLP155 T01440117

12:56 UTC

Wind: 0° 0kt

Visibility: 10 SM

Sky:

Temp: 14 deg C / 57.2 deg F

Dewpoint: 12 deg C / 53.6 deg F

Pressure: 30.09 inHg